createdAt,value
2023-01-28T00:01:32.214Z,85.70
2023-01-28T00:04:00.032Z,85.68
2023-01-28T00:06:27.711Z,85.56
2023-01-28T00:08:55.994Z,85.28
2023-01-28T00:11:23.623Z,85.08
2023-01-28T00:13:51.983Z,85.01
2023-01-28T00:16:19.643Z,84.93
2023-01-28T00:18:47.279Z,84.98
2023-01-28T00:21:14.833Z,85.03
2023-01-28T00:23:43.144Z,85.08
2023-01-28T00:26:10.736Z,84.88
2023-01-28T00:28:38.306Z,84.97
2023-01-28T00:31:06.026Z,84.90
2023-01-28T00:33:33.683Z,84.92
2023-01-28T00:36:01.269Z,84.70
2023-01-28T00:38:28.919Z,84.59
2023-01-28T00:40:56.569Z,84.60
2023-01-28T00:43:24.287Z,84.65
2023-01-28T00:45:51.936Z,84.71
2023-01-28T00:48:19.671Z,84.64
2023-01-28T00:50:47.263Z,84.42
2023-01-28T00:53:14.816Z,84.43
2023-01-28T00:55:42.406Z,84.24
2023-01-28T00:58:09.986Z,84.30
2023-01-28T01:00:37.529Z,84.28
2023-01-28T01:03:05.114Z,84.10
2023-01-28T01:05:33.929Z,84.09
2023-01-28T01:08:01.573Z,84.09
2023-01-28T01:10:29.199Z,84.01
2023-01-28T01:12:58.113Z,83.88
2023-01-28T01:15:25.585Z,83.97
2023-01-28T01:17:53.397Z,84.01
2023-01-28T01:20:20.980Z,84.11
2023-01-28T01:22:48.463Z,83.94
2023-01-28T01:25:16.335Z,83.96
2023-01-28T01:27:45.145Z,84.18
2023-01-28T01:30:12.631Z,84.25
2023-01-28T01:32:43.243Z,84.24
2023-01-28T01:35:10.801Z,84.26
2023-01-28T01:37:38.293Z,84.14
2023-01-28T01:40:05.832Z,84.04
2023-01-28T01:42:33.444Z,84.02
2023-01-28T01:45:01.679Z,84.02
2023-01-28T01:47:29.242Z,84.08
2023-01-28T01:49:56.768Z,83.89
2023-01-28T01:52:24.557Z,83.85
2023-01-28T01:54:52.057Z,83.80
2023-01-28T01:57:19.571Z,83.93
2023-01-28T01:59:47.107Z,84.05
2023-01-28T02:02:14.789Z,84.11
2023-01-28T02:04:42.414Z,84.12
2023-01-28T02:07:10.037Z,84.25
2023-01-28T02:09:38.677Z,84.12
2023-01-28T02:12:06.181Z,84.00
2023-01-28T02:14:33.684Z,84.10
2023-01-28T02:17:01.945Z,84.18
2023-01-28T02:19:29.688Z,84.10
2023-01-28T02:21:57.405Z,84.01
2023-01-28T02:24:25.069Z,84.14
2023-01-28T02:26:52.649Z,84.15
2023-01-28T02:29:20.132Z,84.21
2023-01-28T02:31:47.781Z,84.28
2023-01-28T02:34:15.329Z,84.42
2023-01-28T02:36:42.835Z,84.43
2023-01-28T02:39:10.875Z,84.41
2023-01-28T02:41:38.373Z,84.35
2023-01-28T02:44:05.959Z,84.34
2023-01-28T02:46:52.744Z,84.32
2023-01-28T02:49:20.270Z,84.46
2023-01-28T02:51:47.773Z,84.49
2023-01-28T02:54:15.369Z,84.60
2023-01-28T02:56:42.880Z,84.56
2023-01-28T02:59:30.686Z,84.46
2023-01-28T03:01:58.471Z,84.57
2023-01-28T03:04:26.089Z,84.35
2023-01-28T03:06:53.643Z,84.38
2023-01-28T03:09:27.254Z,84.32
2023-01-28T03:12:14.099Z,84.37
2023-01-28T03:15:00.771Z,84.57
2023-01-28T03:17:47.356Z,84.56
2023-01-28T03:20:33.769Z,84.55
2023-01-28T03:23:20.401Z,84.61
2023-01-28T03:26:06.798Z,84.64
2023-01-28T03:28:53.357Z,84.78
2023-01-28T03:31:39.879Z,84.92
2023-01-28T03:34:26.383Z,85.00
2023-01-28T03:36:53.941Z,85.10
2023-01-28T03:39:21.492Z,85.02
2023-01-28T03:41:49.009Z,85.07
2023-01-28T03:44:35.291Z,85.19
2023-01-28T03:47:04.501Z,85.38
2023-01-28T03:49:32.007Z,85.40
2023-01-28T03:51:59.513Z,85.49
2023-01-28T03:54:27.040Z,85.59
2023-01-28T03:56:54.573Z,85.53
2023-01-28T03:59:22.097Z,85.56
2023-01-28T04:01:50.747Z,85.58
2023-01-28T04:04:24.437Z,85.50
2023-01-28T04:06:52.030Z,85.56
2023-01-28T04:09:19.511Z,85.82
2023-01-28T04:11:46.978Z,85.85
2023-01-28T04:14:15.444Z,85.77
2023-01-28T04:16:42.962Z,85.80
2023-01-28T04:19:10.492Z,85.80
2023-01-28T04:21:38.258Z,85.80
2023-01-28T04:24:05.823Z,85.80
2023-01-28T04:26:33.352Z,85.73
2023-01-28T04:29:00.843Z,85.68
2023-01-28T04:31:28.459Z,85.70
2023-01-28T04:33:55.984Z,85.72
2023-01-28T04:36:23.487Z,85.77
2023-01-28T04:38:51.013Z,85.80
2023-01-28T04:41:18.834Z,85.86
2023-01-28T04:43:46.795Z,85.95
2023-01-28T04:46:14.363Z,85.99
2023-01-28T04:48:42.020Z,85.93
2023-01-28T04:51:09.512Z,85.98
2023-01-28T04:53:36.979Z,86.00
2023-01-28T04:56:04.496Z,86.08
2023-01-28T04:58:32.023Z,86.17
2023-01-28T05:00:59.603Z,86.19
2023-01-28T05:03:27.131Z,86.20
2023-01-28T05:05:54.767Z,86.19
2023-01-28T05:08:22.247Z,86.22
2023-01-28T05:10:49.716Z,86.25
2023-01-28T05:13:17.293Z,86.23
2023-01-28T05:15:44.825Z,86.25
2023-01-28T05:18:12.320Z,86.21
2023-01-28T05:20:39.876Z,86.17
2023-01-28T05:23:07.424Z,86.10
2023-01-28T05:25:34.922Z,86.13
2023-01-28T05:28:02.583Z,86.23
2023-01-28T05:30:30.091Z,86.24
2023-01-28T05:32:57.613Z,86.20
2023-01-28T05:35:25.274Z,86.23
2023-01-28T05:37:52.781Z,86.27
2023-01-28T05:40:20.499Z,86.20
2023-01-28T05:42:48.328Z,86.22
2023-01-28T05:45:16.179Z,86.20
2023-01-28T05:47:45.723Z,86.18
2023-01-28T05:50:13.797Z,86.20
2023-01-28T05:52:41.459Z,86.27
2023-01-28T05:55:09.030Z,86.15
2023-01-28T05:57:36.556Z,86.18
2023-01-28T06:00:05.617Z,86.20
2023-01-28T06:02:33.314Z,86.20
2023-01-28T06:05:01.185Z,86.12
2023-01-28T06:07:28.752Z,86.16
2023-01-28T06:09:56.286Z,86.19
2023-01-28T06:12:23.931Z,86.26
2023-01-28T06:14:51.405Z,86.42
2023-01-28T06:17:18.906Z,86.43
2023-01-28T06:19:46.474Z,86.37
2023-01-28T06:22:14.054Z,86.31
2023-01-28T06:24:41.544Z,86.39
2023-01-28T06:27:09.051Z,86.30
2023-01-28T06:29:36.513Z,86.29
2023-01-28T06:32:04.040Z,86.31
2023-01-28T06:34:31.665Z,86.35
2023-01-28T06:36:59.191Z,86.33
2023-01-28T06:39:28.239Z,86.47
2023-01-28T06:41:55.825Z,86.55
2023-01-28T06:44:23.686Z,86.52
2023-01-28T06:46:51.165Z,86.40
2023-01-28T06:49:18.778Z,86.30
2023-01-28T06:51:46.436Z,86.32
2023-01-28T06:54:13.960Z,86.38
2023-01-28T06:56:41.502Z,86.27
2023-01-28T06:59:09.023Z,86.11
2023-01-28T07:01:36.571Z,87.61
2023-01-28T07:04:04.149Z,86.45
2023-01-28T07:06:31.668Z,85.76
2023-01-28T07:08:59.171Z,85.59
2023-01-28T07:11:26.744Z,85.63
2023-01-28T07:13:54.218Z,85.61
2023-01-28T07:16:21.971Z,85.55
2023-01-28T07:18:49.679Z,85.65
2023-01-28T07:21:17.159Z,85.76
2023-01-28T07:23:44.653Z,85.79
2023-01-28T07:26:12.463Z,85.83
2023-01-28T07:28:40.115Z,85.72
2023-01-28T07:31:07.774Z,85.70
2023-01-28T07:33:35.598Z,85.70
2023-01-28T07:36:03.072Z,85.72
2023-01-28T07:38:30.684Z,85.75
2023-01-28T07:40:58.247Z,85.92
2023-01-28T07:43:25.750Z,86.00
2023-01-28T07:45:53.309Z,85.94
2023-01-28T07:48:20.927Z,86.04
2023-01-28T07:50:49.655Z,86.12
2023-01-28T07:53:17.657Z,86.08
2023-01-28T07:55:45.287Z,86.56
2023-01-28T07:58:12.853Z,87.06
2023-01-28T08:00:40.511Z,86.19
2023-01-28T08:03:08.028Z,85.67
2023-01-28T08:05:35.538Z,85.54
2023-01-28T08:08:03.705Z,85.38
2023-01-28T08:10:31.264Z,85.98
2023-01-28T08:12:58.932Z,85.23
2023-01-28T08:15:26.554Z,85.14
2023-01-28T08:17:54.142Z,85.10
2023-01-28T08:20:21.773Z,85.19
2023-01-28T08:22:49.280Z,86.07
2023-01-28T08:25:16.935Z,85.03
2023-01-28T08:27:44.569Z,84.95
2023-01-28T08:30:12.198Z,85.13
2023-01-28T08:32:39.951Z,85.31
2023-01-28T08:35:07.943Z,85.30
2023-01-28T08:37:35.581Z,85.16
2023-01-28T08:40:03.205Z,84.95
2023-01-28T08:42:30.698Z,85.01
2023-01-28T08:44:58.193Z,85.06
2023-01-28T08:47:25.935Z,85.05
2023-01-28T08:49:53.679Z,85.91
2023-01-28T08:52:21.153Z,85.32
2023-01-28T08:54:48.900Z,85.40
2023-01-28T08:57:16.436Z,84.97
2023-01-28T08:59:46.192Z,84.32
2023-01-28T09:02:29.247Z,84.34
2023-01-28T09:04:58.558Z,84.55
2023-01-28T09:07:26.160Z,84.71
2023-01-28T09:09:53.737Z,84.22
2023-01-28T09:12:21.260Z,84.07
2023-01-28T09:14:48.922Z,84.20
2023-01-28T09:17:16.403Z,84.53
2023-01-28T09:19:43.917Z,84.31
2023-01-28T09:22:11.471Z,84.00
2023-01-28T09:24:39.172Z,83.99
2023-01-28T09:27:06.680Z,84.15
2023-01-28T09:29:38.014Z,84.14
2023-01-28T09:32:05.504Z,83.98
2023-01-28T09:34:32.993Z,83.72
2023-01-28T09:37:00.595Z,83.89
2023-01-28T09:39:31.141Z,83.63
2023-01-28T09:41:58.907Z,83.74
2023-01-28T09:44:26.453Z,83.37
2023-01-28T09:46:54.048Z,83.48
2023-01-28T09:49:21.827Z,83.27
2023-01-28T09:51:49.630Z,83.61
2023-01-28T09:54:17.093Z,83.13
2023-01-28T09:56:46.240Z,83.33
2023-01-28T09:59:13.937Z,82.89
2023-01-28T10:01:42.211Z,82.76
2023-01-28T10:04:09.780Z,82.55
2023-01-28T10:06:37.367Z,82.82
2023-01-28T10:09:04.862Z,82.08
2023-01-28T10:11:32.351Z,82.13
2023-01-28T10:13:59.902Z,82.25
2023-01-28T10:16:27.419Z,82.33
2023-01-28T10:18:54.954Z,82.60
2023-01-28T10:21:22.537Z,82.37
2023-01-28T10:23:50.065Z,82.27
2023-01-28T10:26:17.599Z,82.25
2023-01-28T10:28:45.167Z,82.20
2023-01-28T10:31:13.265Z,82.15
2023-01-28T10:33:40.831Z,82.26
2023-01-28T10:36:08.571Z,82.13
2023-01-28T10:38:36.201Z,81.96
2023-01-28T10:41:03.715Z,81.93
2023-01-28T10:43:31.428Z,82.00
2023-01-28T10:45:59.025Z,82.08
2023-01-28T10:48:26.586Z,81.98
2023-01-28T10:50:54.225Z,81.98
2023-01-28T10:53:21.687Z,82.03
2023-01-28T10:55:49.183Z,82.36
2023-01-28T10:58:17.098Z,82.49
2023-01-28T11:00:44.604Z,82.06
2023-01-28T11:03:12.435Z,82.08
2023-01-28T11:05:40.010Z,82.13
2023-01-28T11:08:07.617Z,82.05
2023-01-28T11:10:35.167Z,81.68
2023-01-28T11:13:02.776Z,81.62
2023-01-28T11:15:30.322Z,81.89
2023-01-28T11:17:57.985Z,82.18
2023-01-28T11:20:25.899Z,81.92
2023-01-28T11:22:53.428Z,81.94
2023-01-28T11:25:20.974Z,81.67
2023-01-28T11:27:48.743Z,82.08
2023-01-28T11:30:16.363Z,82.38
2023-01-28T11:32:44.191Z,81.85
2023-01-28T11:35:13.151Z,81.92
2023-01-28T11:37:41.284Z,82.15
2023-01-28T11:40:09.181Z,82.01
2023-01-28T11:42:36.808Z,81.78
2023-01-28T11:45:04.351Z,81.79
2023-01-28T11:47:31.908Z,81.96
2023-01-28T11:49:59.633Z,82.13
2023-01-28T11:52:27.215Z,81.94
2023-01-28T11:54:56.094Z,81.78
2023-01-28T11:57:24.224Z,81.90
2023-01-28T11:59:52.049Z,81.72
2023-01-28T12:02:19.613Z,81.76
2023-01-28T12:04:47.358Z,81.46
2023-01-28T12:07:14.914Z,81.35
2023-01-28T12:09:45.579Z,81.55
2023-01-28T12:12:13.213Z,81.57
2023-01-28T12:14:40.889Z,81.16
2023-01-28T12:17:08.358Z,80.55
2023-01-28T12:19:35.912Z,80.86
2023-01-28T12:22:03.602Z,81.19
2023-01-28T12:24:31.158Z,81.18
2023-01-28T12:26:58.923Z,81.47
2023-01-28T12:29:26.559Z,81.61
2023-01-28T12:31:54.143Z,81.61
2023-01-28T12:34:21.802Z,81.70
2023-01-28T12:36:49.279Z,81.80
2023-01-28T12:39:16.819Z,81.85
2023-01-28T12:41:44.851Z,82.15
2023-01-28T12:44:12.335Z,82.32
2023-01-28T12:46:39.843Z,82.23
2023-01-28T12:49:07.412Z,82.12
2023-01-28T12:51:34.967Z,82.04
2023-01-28T12:54:02.444Z,81.84
2023-01-28T12:56:30.016Z,81.69
2023-01-28T12:58:57.532Z,82.59
2023-01-28T13:01:25.149Z,81.73
2023-01-28T13:03:52.680Z,81.97
2023-01-28T13:06:20.140Z,81.92
2023-01-28T13:08:47.645Z,82.04
2023-01-28T13:11:16.054Z,82.07
2023-01-28T13:13:43.588Z,82.04
2023-01-28T13:16:11.166Z,82.13
2023-01-28T13:18:38.914Z,82.28
2023-01-28T13:21:06.453Z,82.38
2023-01-28T13:23:33.996Z,82.38
2023-01-28T13:26:01.490Z,82.49
2023-01-28T13:28:29.034Z,82.67
2023-01-28T13:30:56.583Z,82.68
2023-01-28T13:33:24.278Z,82.54
2023-01-28T13:35:51.771Z,82.47
2023-01-28T13:38:20.244Z,82.70
2023-01-28T13:40:47.786Z,82.79
2023-01-28T13:43:15.296Z,82.95
2023-01-28T13:45:42.803Z,83.05
2023-01-28T13:48:10.466Z,82.99
2023-01-28T13:50:37.934Z,83.13
2023-01-28T13:53:05.585Z,83.18
2023-01-28T13:55:43.365Z,83.20
2023-01-28T13:58:13.206Z,83.38
2023-01-28T14:00:40.800Z,83.60
2023-01-28T14:03:08.629Z,83.85
2023-01-28T14:05:36.885Z,83.85
2023-01-28T14:08:04.454Z,83.76
2023-01-28T14:10:32.009Z,83.86
2023-01-28T14:13:01.801Z,83.97
2023-01-28T14:15:29.764Z,84.06
2023-01-28T14:17:57.443Z,83.95
2023-01-28T14:20:26.388Z,84.06
2023-01-28T14:22:54.825Z,84.11
2023-01-28T14:25:22.314Z,84.26
2023-01-28T14:27:50.489Z,84.32
2023-01-28T14:30:18.026Z,84.52
2023-01-28T14:32:45.531Z,84.68
2023-01-28T14:35:13.287Z,84.91
2023-01-28T14:37:40.951Z,85.00
2023-01-28T14:40:08.638Z,84.98
2023-01-28T14:42:36.250Z,84.98
2023-01-28T14:45:03.964Z,85.02
2023-01-28T14:47:31.514Z,85.24
2023-01-28T14:50:01.137Z,85.42
2023-01-28T14:52:29.267Z,85.48
2023-01-28T14:54:56.917Z,85.52
2023-01-28T14:57:24.440Z,85.54
2023-01-28T14:59:51.974Z,85.62
2023-01-28T15:02:19.812Z,85.74
2023-01-28T15:04:47.828Z,85.78
2023-01-28T15:07:15.362Z,85.82
2023-01-28T15:09:43.151Z,85.84
2023-01-28T15:12:10.698Z,86.00
2023-01-28T15:14:39.880Z,86.00
2023-01-28T15:17:07.373Z,85.98
2023-01-28T15:19:35.313Z,86.09
2023-01-28T15:22:02.871Z,86.10
2023-01-28T15:24:30.418Z,86.09
2023-01-28T15:26:58.317Z,86.00
2023-01-28T15:29:25.993Z,86.04
2023-01-28T15:31:53.612Z,86.08
2023-01-28T15:34:21.244Z,85.92
2023-01-28T15:36:49.812Z,85.91
2023-01-28T15:39:17.508Z,86.77
2023-01-28T15:41:47.359Z,87.63
2023-01-28T15:44:15.323Z,85.16
2023-01-28T15:46:42.839Z,85.00
2023-01-28T15:49:10.384Z,85.12
2023-01-28T15:51:37.950Z,85.39
2023-01-28T15:54:05.471Z,85.53
2023-01-28T15:56:33.053Z,85.59
2023-01-28T15:59:00.711Z,85.68
2023-01-28T16:01:28.180Z,85.81
2023-01-28T16:03:55.855Z,85.87
2023-01-28T16:06:23.881Z,85.92
2023-01-28T16:08:51.448Z,86.02
2023-01-28T16:11:18.954Z,86.08
2023-01-28T16:13:46.642Z,86.19
2023-01-28T16:16:14.289Z,86.31
2023-01-28T16:18:43.292Z,86.35
2023-01-28T16:21:11.967Z,86.39
2023-01-28T16:23:39.851Z,86.50
2023-01-28T16:26:07.412Z,86.51
2023-01-28T16:28:34.970Z,86.60
2023-01-28T16:31:02.522Z,86.66
2023-01-28T16:33:30.158Z,86.70
2023-01-28T16:36:07.791Z,86.71
2023-01-28T16:38:36.176Z,86.69
2023-01-28T16:41:03.968Z,86.62
2023-01-28T16:43:31.506Z,86.60
2023-01-28T16:46:00.084Z,86.56
2023-01-28T16:48:30.489Z,86.50
2023-01-28T16:50:58.024Z,86.55
2023-01-28T16:53:28.506Z,86.68
2023-01-28T16:55:56.405Z,86.79
2023-01-28T16:58:24.156Z,86.70
2023-01-28T17:00:51.757Z,86.66
2023-01-28T17:03:20.043Z,86.60
2023-01-28T17:05:47.535Z,86.59
2023-01-28T17:08:15.444Z,86.61
2023-01-28T17:10:43.686Z,86.69
2023-01-28T17:13:11.155Z,86.68
2023-01-28T17:15:38.721Z,86.70
2023-01-28T17:18:06.426Z,86.93
2023-01-28T17:20:40.106Z,86.80
2023-01-28T17:23:09.105Z,86.72
2023-01-28T17:25:36.625Z,86.70
2023-01-28T17:28:04.268Z,86.62
2023-01-28T17:30:31.840Z,86.60
2023-01-28T17:32:59.349Z,86.60
2023-01-28T17:35:26.878Z,86.66
2023-01-28T17:37:54.439Z,86.60
2023-01-28T17:40:22.059Z,86.54
2023-01-28T17:42:49.801Z,86.47
2023-01-28T17:45:17.920Z,86.43
2023-01-28T17:47:45.768Z,86.45
2023-01-28T17:50:13.313Z,86.50
2023-01-28T17:52:41.345Z,86.44
2023-01-28T17:55:10.395Z,86.37
2023-01-28T17:57:37.892Z,86.37
2023-01-28T18:00:05.566Z,86.42
2023-01-28T18:02:34.024Z,86.51
2023-01-28T18:05:01.760Z,86.50
2023-01-28T18:07:30.017Z,86.47
2023-01-28T18:09:58.055Z,86.46
2023-01-28T18:12:25.974Z,86.35
2023-01-28T18:14:53.613Z,86.23
2023-01-28T18:17:26.814Z,86.29
2023-01-28T18:19:54.831Z,86.35
2023-01-28T18:22:22.569Z,86.40
2023-01-28T18:24:50.055Z,86.41
2023-01-28T18:27:17.662Z,86.34
2023-01-28T18:29:45.177Z,86.40
2023-01-28T18:32:13.170Z,86.33
2023-01-28T18:34:40.934Z,86.36
2023-01-28T18:37:10.048Z,86.42
2023-01-28T18:39:38.118Z,86.51
2023-01-28T18:42:05.742Z,86.61
2023-01-28T18:44:33.436Z,86.70
2023-01-28T18:47:01.016Z,86.76
2023-01-28T18:49:28.802Z,86.93
2023-01-28T18:51:56.312Z,86.96
2023-01-28T18:54:24.792Z,87.16
2023-01-28T18:56:52.517Z,87.28
2023-01-28T18:59:21.241Z,87.31
2023-01-28T19:01:49.165Z,87.33
2023-01-28T19:04:16.734Z,87.39
2023-01-28T19:06:44.310Z,87.46
2023-01-28T19:09:11.917Z,87.50
2023-01-28T19:11:42.903Z,87.55
2023-01-28T19:14:10.884Z,87.50
2023-01-28T19:16:38.531Z,87.45
2023-01-28T19:19:06.429Z,87.33
2023-01-28T19:21:34.176Z,87.30
2023-01-28T19:24:02.142Z,87.32
2023-01-28T19:26:29.801Z,87.16
2023-01-28T19:28:57.641Z,86.95
2023-01-28T19:31:25.223Z,86.91
2023-01-28T19:33:53.382Z,86.90
2023-01-28T19:36:21.240Z,87.02
2023-01-28T19:38:48.797Z,87.06
2023-01-28T19:41:17.473Z,87.13
2023-01-28T19:43:45.133Z,86.67
2023-01-28T19:46:12.718Z,86.28
2023-01-28T19:48:40.790Z,86.17
2023-01-28T19:51:08.401Z,85.92
2023-01-28T19:53:36.112Z,85.57
2023-01-28T19:56:03.726Z,85.51
2023-01-28T19:58:31.542Z,85.75
2023-01-28T20:00:59.220Z,85.74
2023-01-28T20:03:26.965Z,85.50
2023-01-28T20:05:54.480Z,85.35
2023-01-28T20:08:22.157Z,85.43
2023-01-28T20:10:49.749Z,85.54
2023-01-28T20:13:17.400Z,85.69
2023-01-28T20:15:45.082Z,85.77
2023-01-28T20:18:12.909Z,85.79
2023-01-28T20:20:40.653Z,85.85
2023-01-28T20:23:08.464Z,86.01
2023-01-28T20:25:36.101Z,86.19
2023-01-28T20:28:04.337Z,86.36
2023-01-28T20:30:31.820Z,86.52
2023-01-28T20:32:59.400Z,86.64
2023-01-28T20:35:26.959Z,86.78
2023-01-28T20:37:54.876Z,86.88
2023-01-28T20:40:22.503Z,86.72
2023-01-28T20:42:50.298Z,86.55
2023-01-28T20:45:18.086Z,86.46
2023-01-28T20:47:46.023Z,86.25
2023-01-28T20:50:13.669Z,86.12
2023-01-28T20:52:42.458Z,86.06
2023-01-28T20:55:10.488Z,86.05
2023-01-28T20:57:38.167Z,85.96
2023-01-28T21:00:06.322Z,85.80
2023-01-28T21:02:37.896Z,85.77
2023-01-28T21:05:05.863Z,85.70
2023-01-28T21:07:34.547Z,85.70
2023-01-28T21:10:06.386Z,85.76
2023-01-28T21:12:34.696Z,85.90
2023-01-28T21:15:02.388Z,85.97
2023-01-28T21:17:31.883Z,86.01
2023-01-28T21:20:01.202Z,86.01
2023-01-28T21:22:29.111Z,86.01
2023-01-28T21:24:56.689Z,86.03
2023-01-28T21:27:24.477Z,86.12
2023-01-28T21:29:52.191Z,86.20
2023-01-28T21:32:24.202Z,86.17
2023-01-28T21:34:52.630Z,86.21
2023-01-28T21:37:22.518Z,86.07
2023-01-28T21:39:50.354Z,85.96
2023-01-28T21:42:17.882Z,85.94
2023-01-28T21:44:45.717Z,85.85
2023-01-28T21:47:13.838Z,85.70
2023-01-28T21:49:41.341Z,85.70
2023-01-28T21:52:09.037Z,85.64
2023-01-28T21:54:36.777Z,85.51
2023-01-28T21:57:04.275Z,85.53
2023-01-28T21:59:32.708Z,85.59
2023-01-28T22:02:00.998Z,85.92
2023-01-28T22:04:28.546Z,85.90
2023-01-28T22:06:56.087Z,85.98
2023-01-28T22:09:23.990Z,86.04
2023-01-28T22:11:51.567Z,86.10
2023-01-28T22:14:19.146Z,85.99
2023-01-28T22:16:47.041Z,85.90
2023-01-28T22:19:14.635Z,85.98
2023-01-28T22:21:42.423Z,86.09
2023-01-28T22:24:10.098Z,86.16
2023-01-28T22:26:37.749Z,86.25
2023-01-28T22:29:05.518Z,86.31
2023-01-28T22:31:33.153Z,86.35
2023-01-28T22:34:00.807Z,86.30
2023-01-28T22:36:28.476Z,86.40
2023-01-28T22:38:56.266Z,86.59
2023-01-28T22:41:23.922Z,86.72
2023-01-28T22:43:51.533Z,86.70
2023-01-28T22:46:19.093Z,86.66
2023-01-28T22:48:46.658Z,86.69
2023-01-28T22:51:14.247Z,86.70
2023-01-28T22:53:41.775Z,86.69
2023-01-28T22:56:09.423Z,86.65
2023-01-28T22:58:37.091Z,86.68
2023-01-28T23:01:04.639Z,86.61
2023-01-28T23:03:32.437Z,86.51
2023-01-28T23:05:59.987Z,86.54
2023-01-28T23:08:27.529Z,86.53
2023-01-28T23:10:57.451Z,86.59
2023-01-28T23:13:25.139Z,86.64
2023-01-28T23:16:11.670Z,86.69
2023-01-28T23:18:58.294Z,86.70
2023-01-28T23:21:44.899Z,86.74
2023-01-28T23:24:22.192Z,86.89
2023-01-28T23:26:49.877Z,86.98
2023-01-28T23:29:17.575Z,86.93
2023-01-28T23:31:46.810Z,86.92
2023-01-28T23:34:14.469Z,86.95
2023-01-28T23:36:42.132Z,87.00
2023-01-28T23:39:09.778Z,87.03
2023-01-28T23:41:37.344Z,87.10
2023-01-28T23:44:05.123Z,87.15
2023-01-28T23:46:39.515Z,87.17
2023-01-28T23:49:08.802Z,87.19
2023-01-28T23:51:36.338Z,86.95
2023-01-28T23:54:03.815Z,86.98
2023-01-28T23:56:31.306Z,86.90
2023-01-28T23:58:58.927Z,86.65
